createdAt,value
2018-01-08T00:00:17.854Z,72.99
2018-01-08T00:00:58.462Z,73.46
2018-01-08T00:01:39.204Z,73.74
2018-01-08T00:02:19.512Z,73.55
2018-01-08T00:02:59.826Z,74.18
2018-01-08T00:03:40.336Z,74.75
2018-01-08T00:04:20.700Z,74.88
2018-01-08T00:05:01.225Z,75.07
2018-01-08T00:05:41.598Z,74.88
2018-01-08T00:06:21.972Z,74.51
2018-01-08T00:07:02.458Z,74.03
2018-01-08T00:07:42.867Z,73.74
2018-01-08T00:08:23.260Z,73.46
2018-01-08T00:09:03.808Z,72.64
2018-01-08T00:09:44.258Z,72.92
2018-01-08T00:10:24.864Z,72.55
2018-01-08T00:11:05.254Z,71.37
2018-01-08T00:11:45.861Z,72.22
2018-01-08T00:12:28.150Z,72.99
2018-01-08T00:13:08.592Z,72.99
2018-01-08T00:13:49.281Z,72.89
2018-01-08T00:14:29.731Z,72.99
2018-01-08T00:15:11.086Z,73.08
2018-01-08T00:15:51.393Z,72.99
2018-01-08T00:16:32.226Z,73.18
2018-01-08T00:17:12.831Z,72.79
2018-01-08T00:17:53.504Z,72.32
2018-01-08T00:18:34.116Z,72.32
2018-01-08T00:19:14.561Z,72.51
2018-01-08T00:19:55.345Z,73.08
2018-01-08T00:20:35.742Z,73.27
2018-01-08T00:21:16.161Z,73.36
2018-01-08T00:21:56.593Z,73.08
2018-01-08T00:22:36.958Z,72.79
2018-01-08T00:23:17.349Z,72.99
2018-01-08T00:23:57.989Z,72.7
2018-01-08T00:24:38.479Z,72.92
2018-01-08T00:25:19.011Z,73.02
2018-01-08T00:27:37.469Z,71.88
2018-01-08T00:28:18.049Z,71.22
2018-01-08T00:28:58.420Z,71.41
2018-01-08T00:29:39.139Z,70.83
2018-01-08T00:30:19.561Z,71.06
2018-01-08T00:30:59.982Z,70.87
2018-01-08T00:31:40.617Z,70.68
2018-01-08T00:32:21.053Z,70.58
2018-01-08T00:33:01.471Z,70.01
2018-01-08T00:33:41.865Z,69.82
2018-01-08T00:34:22.277Z,69.73
2018-01-08T00:35:02.629Z,70.26
2018-01-08T00:35:42.978Z,70.07
2018-01-08T00:36:23.393Z,70.64
2018-01-08T00:37:06.914Z,70.74
2018-01-08T00:37:47.423Z,71.31
2018-01-08T00:38:27.719Z,71.22
2018-01-08T00:39:08.237Z,71.59
2018-01-08T00:39:48.786Z,71.78
2018-01-08T00:40:29.353Z,71.02
2018-01-08T00:41:09.663Z,72.07
2018-01-08T00:41:50.035Z,71.12
2018-01-08T00:42:30.472Z,71.69
2018-01-08T00:43:10.847Z,71.78
2018-01-08T00:43:51.291Z,72.07
2018-01-08T00:44:31.741Z,71.88
2018-01-08T00:45:12.268Z,71.59
2018-01-08T00:45:52.807Z,71.88
2018-01-08T00:46:33.166Z,72.55
2018-01-08T00:47:13.481Z,71.69
2018-01-08T00:47:53.918Z,71.59
2018-01-08T00:48:34.330Z,72.07
2018-01-08T00:49:14.714Z,72.51
2018-01-08T00:49:55.124Z,72.79
2018-01-08T00:50:35.636Z,73.18
2018-01-08T00:51:15.998Z,72.83
2018-01-08T00:51:56.406Z,72.55
2018-01-08T00:52:37.196Z,72.26
2018-01-08T00:53:17.222Z,71.88
2018-01-08T00:53:57.625Z,72.07
2018-01-08T00:54:38.194Z,72.45
2018-01-08T00:55:18.560Z,72.64
2018-01-08T00:55:58.984Z,72.16
2018-01-08T00:56:39.323Z,71.97
2018-01-08T00:57:19.687Z,71.31
2018-01-08T00:58:00.181Z,71.41
2018-01-08T00:58:40.576Z,71.97
2018-01-08T00:59:21.232Z,72.35
2018-01-08T01:00:01.782Z,71.41
2018-01-08T01:00:42.048Z,71.59
2018-01-08T01:01:22.605Z,71.69
2018-01-08T01:02:03.103Z,72.07
2018-01-08T01:02:43.480Z,71.31
2018-01-08T01:03:23.910Z,71.31
2018-01-08T01:04:04.589Z,71.31
2018-01-08T01:04:45.138Z,71.5
2018-01-08T01:05:25.488Z,71.59
2018-01-08T01:07:14.702Z,71.41
2018-01-08T01:07:55.952Z,71.41
2018-01-08T01:08:36.326Z,71.41
2018-01-08T01:09:16.659Z,71.41
2018-01-08T01:09:57.055Z,71.59
2018-01-08T01:10:37.802Z,71.59
2018-01-08T01:11:18.191Z,72.16
2018-01-08T01:11:58.426Z,72.45
2018-01-08T01:12:38.967Z,72.45
2018-01-08T01:13:19.473Z,71.97
2018-01-08T01:13:59.936Z,71.88
2018-01-08T01:14:40.315Z,71.78
2018-01-08T01:15:20.839Z,72.07
2018-01-08T01:16:01.169Z,71.69
2018-01-08T01:16:41.583Z,71.78
2018-01-08T01:17:22.155Z,71.5
2018-01-08T01:18:02.608Z,71.41
2018-01-08T01:18:43.140Z,71.88
2018-01-08T01:19:23.682Z,71.12
2018-01-08T01:20:04.043Z,71.88
2018-01-08T01:20:44.790Z,71.78
2018-01-08T01:21:25.130Z,71.97
2018-01-08T01:22:06.015Z,71.97
2018-01-08T01:22:46.400Z,71.84
2018-01-08T01:23:27.063Z,72.51
2018-01-08T01:24:08.022Z,73.27
2018-01-08T01:24:48.442Z,73.36
2018-01-08T01:25:28.924Z,72.79
2018-01-08T01:26:09.357Z,72.89
2018-01-08T01:26:49.782Z,73.46
2018-01-08T01:27:30.181Z,73.65
2018-01-08T01:28:10.875Z,73.74
2018-01-08T01:28:51.302Z,73.3
2018-01-08T01:29:31.652Z,73.02
2018-01-08T01:30:12.030Z,72.55
2018-01-08T01:30:52.561Z,72.64
2018-01-08T01:31:33.811Z,71.41
2018-01-08T01:32:14.196Z,71.59
2018-01-08T01:34:07.646Z,71.41
2018-01-08T01:34:48.248Z,71.41
2018-01-08T01:35:28.671Z,71.41
2018-01-08T01:36:09.007Z,71.63
2018-01-08T01:36:49.420Z,70.87
2018-01-08T01:37:30.136Z,70.54
2018-01-08T01:38:10.539Z,70.83
2018-01-08T01:40:28.473Z,72.89
2018-01-08T01:41:09.028Z,72.92
2018-01-08T01:41:49.479Z,72.74
2018-01-08T01:42:29.954Z,72.13
2018-01-08T01:43:10.341Z,72.79
2018-01-08T01:43:50.765Z,73.27
2018-01-08T01:44:31.386Z,73.55
2018-01-08T01:45:11.994Z,73.18
2018-01-08T01:45:52.373Z,73.74
2018-01-08T01:46:33.004Z,73.84
2018-01-08T01:47:13.279Z,73.65
2018-01-08T01:47:54.019Z,73.55
2018-01-08T01:48:34.153Z,73.02
2018-01-08T01:49:14.585Z,72.83
2018-01-08T01:49:55.290Z,73.02
2018-01-08T01:50:35.511Z,72.55
2018-01-08T01:51:15.943Z,71.59
2018-01-08T01:51:56.342Z,71.31
2018-01-08T01:52:36.759Z,70.87
2018-01-08T01:53:17.157Z,70.68
2018-01-08T01:53:58.057Z,70.2
2018-01-08T01:54:38.412Z,69.82
2018-01-08T01:55:19.232Z,68.87
2018-01-08T01:55:59.415Z,69.44
2018-01-08T01:56:40.046Z,69.25
2018-01-08T01:57:20.514Z,69.73
2018-01-08T01:58:01.167Z,69.73
2018-01-08T01:58:42.158Z,69.15
2018-01-08T01:59:22.260Z,69.15
2018-01-08T02:00:02.611Z,69.44
2018-01-08T02:00:43.031Z,68.96
2018-01-08T02:02:43.696Z,68.87
2018-01-08T02:03:24.894Z,68.77
2018-01-08T02:04:05.467Z,68.59
2018-01-08T02:04:46.122Z,68.3
2018-01-08T02:05:26.560Z,68.68
2018-01-08T02:06:07.076Z,68.96
2018-01-08T02:06:47.401Z,68.59
2018-01-08T02:07:27.998Z,68.4
2018-01-08T02:08:08.288Z,68.59
2018-01-08T02:08:48.881Z,68.49
2018-01-08T02:09:29.504Z,68.96
2018-01-08T02:10:10.011Z,68.96
2018-01-08T02:10:50.496Z,69.25
2018-01-08T02:11:30.924Z,68.96
2018-01-08T02:12:11.503Z,69.73
2018-01-08T02:12:52.013Z,69.44
2018-01-08T02:13:32.428Z,69.15
2018-01-08T02:14:13.318Z,69.06
2018-01-08T02:14:53.877Z,69.88
2018-01-08T02:15:34.210Z,70.64
2018-01-08T02:16:14.599Z,70.36
2018-01-08T02:16:55.283Z,70.26
2018-01-08T02:17:35.817Z,70.93
2018-01-08T02:18:16.466Z,71.5
2018-01-08T02:18:56.909Z,71.22
2018-01-08T02:19:37.391Z,70.87
2018-01-08T02:20:18.408Z,70.39
2018-01-08T02:20:58.797Z,70.49
2018-01-08T02:21:39.183Z,70.2
2018-01-08T02:22:19.609Z,69.54
2018-01-08T02:22:59.990Z,69.82
2018-01-08T02:23:40.546Z,69.06
2018-01-08T02:24:20.766Z,68.87
2018-01-08T02:25:01.181Z,68.77
2018-01-08T02:25:41.725Z,69.35
2018-01-08T02:26:22.307Z,69.06
2018-01-08T02:27:02.795Z,69.25
2018-01-08T02:27:43.035Z,69.25
2018-01-08T02:28:23.458Z,69.25
2018-01-08T02:29:03.880Z,69.06
2018-01-08T02:29:44.438Z,69.35
2018-01-08T02:30:24.987Z,69.25
2018-01-08T02:31:06.377Z,69.06
2018-01-08T02:31:46.857Z,69.25
2018-01-08T02:32:27.285Z,69.92
2018-01-08T02:33:07.656Z,70.01
2018-01-08T02:33:48.234Z,69.79
2018-01-08T02:34:28.807Z,69.88
2018-01-08T02:35:09.136Z,70.64
2018-01-08T02:35:49.563Z,71.41
2018-01-08T02:36:30.178Z,72.16
2018-01-08T02:37:10.555Z,71.97
2018-01-08T02:37:51.033Z,71.5
2018-01-08T02:38:31.407Z,70.83
2018-01-08T02:39:11.874Z,72.07
2018-01-08T02:39:52.293Z,72.55
2018-01-08T02:40:32.720Z,72.64
2018-01-08T02:41:13.067Z,71.88
2018-01-08T02:41:53.903Z,72.35
2018-01-08T02:42:34.371Z,72.51
2018-01-08T02:43:14.760Z,72.83
2018-01-08T02:43:55.077Z,73.02
2018-01-08T02:44:36.011Z,73.02
2018-01-08T02:45:16.861Z,72.55
2018-01-08T02:45:57.868Z,72.32
2018-01-08T02:46:38.401Z,73.18
2018-01-08T02:47:18.789Z,73.36
2018-01-08T02:47:59.472Z,73.65
2018-01-08T02:48:40.214Z,73.55
2018-01-08T02:49:20.452Z,73.36
2018-01-08T02:50:00.857Z,73.55
2018-01-08T02:50:41.292Z,73.93
2018-01-08T02:51:22.342Z,74.27
2018-01-08T02:52:02.567Z,75.23
2018-01-08T02:52:42.958Z,75.99
2018-01-08T02:53:23.353Z,76.65
2018-01-08T02:54:03.826Z,75.7
2018-01-08T02:54:44.408Z,75.93
2018-01-08T02:55:24.551Z,75.17
2018-01-08T02:56:05.041Z,74.69
2018-01-08T02:56:45.394Z,74.79
2018-01-08T02:57:25.833Z,74.69
2018-01-08T02:58:06.334Z,74.6
2018-01-08T02:58:46.798Z,74.41
2018-01-08T02:59:27.233Z,74.98
2018-01-08T03:00:07.754Z,75.36
2018-01-08T03:00:48.099Z,74.98
2018-01-08T03:01:28.783Z,74.22
2018-01-08T03:02:09.378Z,73.65
2018-01-08T03:02:49.392Z,74.03
2018-01-08T03:03:29.975Z,74.69
2018-01-08T03:04:10.281Z,75.17
2018-01-08T03:04:50.699Z,75.13
2018-01-08T03:05:31.519Z,75.17
2018-01-08T03:06:11.906Z,74.75
2018-01-08T03:06:52.680Z,75.89
2018-01-08T03:07:33.063Z,76.9
2018-01-08T03:08:13.427Z,77.09
2018-01-08T03:08:53.878Z,78.42
2018-01-08T03:09:34.313Z,78.32
2018-01-08T03:10:15.043Z,78.8
2018-01-08T03:10:55.555Z,78.51
2018-01-08T03:11:35.854Z,78.23
2018-01-08T03:12:16.253Z,78.89
2018-01-08T03:12:56.776Z,79.94
2018-01-08T03:13:37.352Z,78.7
2018-01-08T03:14:17.638Z,78.36
2018-01-08T03:14:58.166Z,78.36
2018-01-08T03:15:38.515Z,78.64
2018-01-08T03:16:18.900Z,77.89
2018-01-08T03:16:59.255Z,77.41
2018-01-08T03:17:39.633Z,75.79
2018-01-08T03:18:20.385Z,76.46
2018-01-08T03:19:00.782Z,76.99
2018-01-08T03:19:41.175Z,77.75
2018-01-08T03:20:21.733Z,78.32
2018-01-08T03:21:02.154Z,78.32
2018-01-08T03:21:42.602Z,79.17
2018-01-08T03:22:23.169Z,79.74
2018-01-08T03:23:03.404Z,78.32
2018-01-08T03:23:43.862Z,78.23
2018-01-08T03:24:24.265Z,77.94
2018-01-08T03:25:04.975Z,78.7
2018-01-08T03:25:45.550Z,78.51
2018-01-08T03:26:26.446Z,78.13
2018-01-08T03:27:06.859Z,78.13
2018-01-08T03:27:47.283Z,78.8
2018-01-08T03:28:28.032Z,78.32
2018-01-08T03:29:08.530Z,79.27
2018-01-08T03:29:48.889Z,80.13
2018-01-08T03:30:29.364Z,79.17
2018-01-08T03:31:09.757Z,79.46
2018-01-08T03:31:50.280Z,79.08
2018-01-08T03:32:31.104Z,79.36
2018-01-08T03:33:11.391Z,79.94
2018-01-08T03:33:51.911Z,80.03
2018-01-08T03:34:32.322Z,79.84
2018-01-08T03:35:12.957Z,80.13
2018-01-08T03:35:53.344Z,79.94
2018-01-08T03:36:33.841Z,79.27
2018-01-08T03:37:14.389Z,79.08
2018-01-08T03:37:54.753Z,78.89
2018-01-08T03:38:35.171Z,78.8
2018-01-08T03:39:16.023Z,79.08
2018-01-08T03:39:56.403Z,79.46
2018-01-08T03:40:38.146Z,79.27
2018-01-08T03:41:18.914Z,79.17
2018-01-08T03:41:59.297Z,78.99
2018-01-08T03:42:39.799Z,79.74
2018-01-08T03:43:20.218Z,79.36
2018-01-08T03:44:00.553Z,79.55
2018-01-08T03:44:41.104Z,79.27
2018-01-08T03:45:21.513Z,78.83
2018-01-08T03:46:02.532Z,78.55
2018-01-08T03:46:43.118Z,77.79
2018-01-08T03:47:23.568Z,77.41
2018-01-08T03:48:04.082Z,78.36
2018-01-08T03:48:44.648Z,78.36
2018-01-08T03:49:25.142Z,78.55
2018-01-08T03:50:05.783Z,77.41
2018-01-08T03:50:46.132Z,77.12
2018-01-08T03:51:26.424Z,77.7
2018-01-08T03:53:33.557Z,76.03
2018-01-08T03:54:30.000Z,76.27
2018-01-08T03:55:25.947Z,76.84
2018-01-08T03:56:19.244Z,76.9
2018-01-08T03:58:51.482Z,79.46
2018-01-08T03:59:32.403Z,79.08
2018-01-08T04:00:12.824Z,78.45
2018-01-08T04:00:53.323Z,78.64
2018-01-08T04:01:33.877Z,78.36
2018-01-08T04:42:30.239Z,78.93
2018-01-08T04:43:10.054Z,79.97
2018-01-08T04:43:50.770Z,80.07
2018-01-08T04:44:31.339Z,79.03
2018-01-08T04:45:11.697Z,78.27
2018-01-08T04:45:52.104Z,78.45
2018-01-08T04:46:32.589Z,78.08
2018-01-08T04:47:13.087Z,78.64
2018-01-08T04:47:53.744Z,78.36
2018-01-08T04:48:33.833Z,78.8
2018-01-08T04:49:14.385Z,79.27
2018-01-08T04:49:55.641Z,78.7
2018-01-08T04:50:35.990Z,78.8
2018-01-08T04:51:16.409Z,79.55
2018-01-08T04:51:57.296Z,80.41
2018-01-08T04:52:37.692Z,81.07
2018-01-08T04:53:18.110Z,81.36
2018-01-08T04:53:59.260Z,81.17
2018-01-08T04:54:39.653Z,81.36
2018-01-08T04:55:20.238Z,79.94
2018-01-08T04:56:00.892Z,79.27
2018-01-08T04:56:41.822Z,80.79
2018-01-08T04:57:22.340Z,80.32
2018-01-08T04:58:02.664Z,80.6
2018-01-08T04:58:43.109Z,80.79
2018-01-08T04:59:23.429Z,80.32
2018-01-08T05:00:04.645Z,80.32
2018-01-08T05:00:45.035Z,80.51
2018-01-08T05:01:25.493Z,80.03
2018-01-08T05:02:06.022Z,80.35
2018-01-08T05:02:47.651Z,80.64
2018-01-08T05:03:27.478Z,79.12
2018-01-08T05:04:08.077Z,78.27
2018-01-08T05:04:48.718Z,77.79
2018-01-08T05:05:29.079Z,77.31
2018-01-08T05:06:09.466Z,77.22
2018-01-08T05:06:50.238Z,78.27
2018-01-08T05:07:30.535Z,79.5
2018-01-08T05:08:11.795Z,79.03
2018-01-08T05:08:52.558Z,78.55
2018-01-08T05:09:33.022Z,78.27
2018-01-08T05:10:13.329Z,78.45
2018-01-08T05:10:53.794Z,78.36
2018-01-08T05:11:34.166Z,78.59
2018-01-08T05:12:15.086Z,77.83
2018-01-08T05:12:55.520Z,76.97
2018-01-08T05:13:36.328Z,76.37
2018-01-08T05:14:16.597Z,76.75
2018-01-08T05:14:57.433Z,78.55
2018-01-08T05:15:37.736Z,78.27
2018-01-08T05:16:18.254Z,78.32
2018-01-08T05:16:58.745Z,79.08
2018-01-08T05:17:39.198Z,80.41
2018-01-08T05:18:19.716Z,80.22
2018-01-08T05:19:00.217Z,79.94
2018-01-08T05:20:52.627Z,80.13
2018-01-08T05:21:33.514Z,80.16
2018-01-08T05:22:13.952Z,79.03
2018-01-08T05:22:54.822Z,78.93
2018-01-08T05:23:35.413Z,79.03
2018-01-08T05:24:15.620Z,79.03
2018-01-08T05:24:56.141Z,79.31
2018-01-08T05:25:37.293Z,78.83
2018-01-08T05:26:17.661Z,78.74
2018-01-08T05:26:58.811Z,78.4
2018-01-08T05:27:39.332Z,78.11
2018-01-08T05:28:20.177Z,76.37
2018-01-08T05:29:00.629Z,77.51
2018-01-08T05:29:41.786Z,78.17
2018-01-08T05:30:22.195Z,78.21
2018-01-08T05:31:02.410Z,77.73
2018-01-08T05:31:42.930Z,76.97
2018-01-08T05:32:24.361Z,77.36
2018-01-08T05:33:05.250Z,77.36
2018-01-08T05:33:45.593Z,76.97
2018-01-08T05:34:25.978Z,76.97
2018-01-08T05:35:06.724Z,77.83
2018-01-08T05:35:46.952Z,77.36
2018-01-08T05:36:27.397Z,77.55
2018-01-08T05:37:07.796Z,77.17
2018-01-08T05:37:48.754Z,76.75
2018-01-08T05:38:29.709Z,77.79
2018-01-08T05:39:09.991Z,77.79
2018-01-08T05:39:50.376Z,77.79
2018-01-08T05:40:30.815Z,77.12
2018-01-08T05:41:11.204Z,77.7
2018-01-08T05:41:51.872Z,77.7
2018-01-08T05:42:32.112Z,78.74
2018-01-08T05:43:12.569Z,77.89
2018-01-08T05:43:53.021Z,78.36
2018-01-08T05:44:33.768Z,77.79
2018-01-08T05:45:14.186Z,79.97
2018-01-08T05:45:54.699Z,81.21
2018-01-08T05:46:35.208Z,81.4
2018-01-08T05:47:15.405Z,79.97
2018-01-08T05:47:55.782Z,79.5
2018-01-08T05:48:36.141Z,78.88
2018-01-08T05:49:16.585Z,77.55
2018-01-08T05:49:56.951Z,76.97
2018-01-08T05:50:37.405Z,76.4
2018-01-08T05:51:18.040Z,77.45
2018-01-08T05:51:58.397Z,78.69
2018-01-08T05:52:38.826Z,78.21
2018-01-08T05:53:19.917Z,77.36
2018-01-08T05:54:00.278Z,77.55
2018-01-08T05:54:41.039Z,76.78
2018-01-08T05:55:21.424Z,75.84
2018-01-08T05:56:01.547Z,75.26
2018-01-08T05:56:42.063Z,77.17
2018-01-08T05:57:22.527Z,78.4
2018-01-08T05:58:02.858Z,78.5
2018-01-08T05:58:43.592Z,77.17
2018-01-08T06:02:01.241Z,76.88
2018-01-08T06:02:42.831Z,76.5
2018-01-08T06:03:23.244Z,76.82
2018-01-08T06:04:03.772Z,76.16
2018-01-08T06:04:44.061Z,74.82
2018-01-08T06:05:24.598Z,74.79
2018-01-08T06:06:04.945Z,75.93
2018-01-08T06:06:46.365Z,75.17
2018-01-08T06:07:26.246Z,76.21
2018-01-08T06:08:07.214Z,75.93
2018-01-08T06:08:47.669Z,77.07
2018-01-08T06:09:28.306Z,76.31
2018-01-08T06:10:08.707Z,76.97
2018-01-08T06:10:49.347Z,76.59
2018-01-08T06:11:29.777Z,75.36
2018-01-08T06:12:10.372Z,76.21
2018-01-08T06:12:50.727Z,76.21
2018-01-08T06:13:31.071Z,76.4
2018-01-08T06:14:11.748Z,76.84
2018-01-08T06:14:52.256Z,77.12
2018-01-08T06:15:33.338Z,77.7
2018-01-08T06:16:13.320Z,78.74
2018-01-08T06:16:53.682Z,79.41
2018-01-08T06:17:34.945Z,79.54
2018-01-08T06:18:15.469Z,78.97
2018-01-08T06:18:55.890Z,78.4
2018-01-08T06:19:36.645Z,76.69
2018-01-08T06:20:16.869Z,77.07
2018-01-08T06:20:57.622Z,74.88
2018-01-08T06:21:37.990Z,76.12
2018-01-08T06:22:18.444Z,76.78
2018-01-08T06:22:59.068Z,76.31
2018-01-08T06:23:40.095Z,76.21
2018-01-08T06:24:20.424Z,75.07
2018-01-08T06:26:33.655Z,75.17
2018-01-08T06:27:14.186Z,76.59
2018-01-08T06:27:54.593Z,76.88
2018-01-08T06:28:34.994Z,76.97
2018-01-08T06:29:15.466Z,77.55
2018-01-08T06:29:57.226Z,77.64
2018-01-08T06:30:38.416Z,76.97
2018-01-08T06:31:17.739Z,77.45
2018-01-08T06:31:59.880Z,77.83
2018-01-08T06:32:38.672Z,77.87
2018-01-08T06:33:19.507Z,74.92
2018-01-08T06:34:00.102Z,74.88
2018-01-08T06:34:40.919Z,77.07
2018-01-08T06:35:21.393Z,77.83
2018-01-08T06:36:01.898Z,77.26
2018-01-08T06:36:42.428Z,76.21
2018-01-08T06:37:23.176Z,76.21
2018-01-08T06:38:03.523Z,76.69
2018-01-08T06:38:44.031Z,76.03
2018-01-08T06:39:24.389Z,77.07
2018-01-08T06:40:04.919Z,76.88
2018-01-08T06:40:45.323Z,77.41
2018-01-08T06:41:25.723Z,77.79
2018-01-08T06:42:06.500Z,78.36
2018-01-08T06:42:46.907Z,77.7
2018-01-08T06:43:27.402Z,77.41
2018-01-08T06:44:07.821Z,77.79
2018-01-08T06:44:48.382Z,78.08
2018-01-08T06:45:29.037Z,78.55
2018-01-08T06:46:09.325Z,78.21
2018-01-08T06:46:50.297Z,77.55
2018-01-08T06:47:30.986Z,76.88
2018-01-08T06:48:11.324Z,78.11
2018-01-08T06:48:51.704Z,77.64
2018-01-08T06:49:32.213Z,77.92
2018-01-08T06:50:13.420Z,76.97
2018-01-08T06:50:54.047Z,76.21
2018-01-08T06:51:34.574Z,76.88
2018-01-08T06:52:14.881Z,77.83
2018-01-08T06:52:55.466Z,77.36
2018-01-08T06:53:37.259Z,77.73
2018-01-08T06:54:17.597Z,76.88
2018-01-08T06:54:58.180Z,76.97
2018-01-08T06:55:38.555Z,76.88
2018-01-08T06:56:19.041Z,77.07
2018-01-08T06:56:59.923Z,75.84
2018-01-08T06:57:40.836Z,75.17
2018-01-08T06:58:21.323Z,76.12
2018-01-08T06:59:02.024Z,76.5
2018-01-08T06:59:42.412Z,77.45
2018-01-08T07:00:22.923Z,77.26
2018-01-08T07:01:03.315Z,78.17
2018-01-08T07:01:43.763Z,78.88
2018-01-08T07:02:24.143Z,78.02
2018-01-08T07:03:04.517Z,78.69
2018-01-08T07:03:45.538Z,76.88
2018-01-08T07:04:26.117Z,75.93
2018-01-08T07:05:06.598Z,76.59
2018-01-08T07:05:47.032Z,77.07
2018-01-08T07:06:27.452Z,76.78
2018-01-08T07:07:08.701Z,75.17
2018-01-08T07:07:50.080Z,76.78
2018-01-08T07:08:30.539Z,77.26
2018-01-08T07:09:10.878Z,77.83
2018-01-08T07:09:51.309Z,76.97
2018-01-08T07:10:31.775Z,75.84
2018-01-08T07:11:12.312Z,76.97
2018-01-08T07:11:53.049Z,76.69
2018-01-08T07:12:33.505Z,76.12
2018-01-08T07:13:14.156Z,75.68
2018-01-08T07:13:54.465Z,75.02
2018-01-08T07:14:35.032Z,75.02
2018-01-08T07:15:15.362Z,74.63
2018-01-08T07:15:55.787Z,74.35
2018-01-08T07:16:36.173Z,74.22
2018-01-08T07:17:16.792Z,74.88
2018-01-08T07:17:57.170Z,76.31
2018-01-08T07:18:37.590Z,76.97
2018-01-08T07:19:17.989Z,76.97
2018-01-08T07:19:58.686Z,76.88
2018-01-08T07:20:39.404Z,76.88
2018-01-08T07:21:20.271Z,76.97
2018-01-08T07:23:07.845Z,76.03
2018-01-08T07:23:48.911Z,75.26
2018-01-08T07:24:29.212Z,76.78
2018-01-08T07:25:11.424Z,77.92
2018-01-08T07:25:51.043Z,77.07
2018-01-08T07:26:31.317Z,77.45
2018-01-08T07:27:11.912Z,75.93
2018-01-08T07:27:52.323Z,75.93
2018-01-08T07:28:33.050Z,77.55
2018-01-08T07:29:13.655Z,76.78
2018-01-08T07:29:54.663Z,76.69
2018-01-08T07:30:34.942Z,76.59
2018-01-08T07:31:15.762Z,77.73
2018-01-08T07:31:55.946Z,77.22
2018-01-08T07:32:36.400Z,77.79
2018-01-08T07:33:17.162Z,77.89
2018-01-08T07:33:57.762Z,78.93
2018-01-08T07:34:38.193Z,78.93
2018-01-08T07:35:18.723Z,77.89
2018-01-08T07:35:59.142Z,78.36
2018-01-08T07:36:39.811Z,78.4
2018-01-08T07:37:20.385Z,78.02
2018-01-08T07:38:00.870Z,78.11
2018-01-08T07:38:41.281Z,76.03
2018-01-08T07:39:21.788Z,76.69
2018-01-08T07:40:02.324Z,76.88
2018-01-08T07:40:42.924Z,76.69
2018-01-08T07:41:23.727Z,76.84
2018-01-08T07:42:04.098Z,77.79
2018-01-08T07:42:44.301Z,78.36
2018-01-08T07:43:24.861Z,77.79
2018-01-08T07:44:05.738Z,77.41
2018-01-08T07:44:46.319Z,78.55
2018-01-08T07:45:26.871Z,79.31
2018-01-08T07:46:07.281Z,79.41
2018-01-08T07:46:47.823Z,78.78
2018-01-08T07:47:28.284Z,77.92
2018-01-08T07:48:13.389Z,76.88
2018-01-08T07:48:53.828Z,77.45
2018-01-08T07:49:35.651Z,76.31
2018-01-08T07:50:16.294Z,76.88
2018-01-08T07:50:56.695Z,76.69
2018-01-08T07:51:37.537Z,76.08
2018-01-08T07:52:18.093Z,77.79
2018-01-08T07:52:58.598Z,78.64
2018-01-08T07:53:40.866Z,79.03
2018-01-08T07:54:21.034Z,78.36
2018-01-08T07:55:01.409Z,77.92
2018-01-08T07:55:42.020Z,77.55
2018-01-08T07:56:22.447Z,76.78
2018-01-08T07:57:02.884Z,76.78
2018-01-08T07:59:03.515Z,75.93
2018-01-08T07:59:45.091Z,74.88
2018-01-08T08:00:26.113Z,74.79
2018-01-08T08:01:06.643Z,75.36
2018-01-08T08:01:47.124Z,75.74
2018-01-08T08:02:27.504Z,76.37
2018-01-08T08:03:07.915Z,76.46
2018-01-08T08:03:48.317Z,77.7
2018-01-08T08:04:28.756Z,78.55
2018-01-08T08:05:09.376Z,79.03
2018-01-08T08:05:49.656Z,78.74
2018-01-08T08:06:31.449Z,78.83
2018-01-08T08:07:11.990Z,79.03
2018-01-08T08:07:52.492Z,78.27
2018-01-08T08:09:41.922Z,79.22
2018-01-08T08:10:23.473Z,78.64
2018-01-08T08:11:03.884Z,79.03
2018-01-08T08:11:44.607Z,78.83
2018-01-08T08:12:25.271Z,79.22
2018-01-08T08:13:05.416Z,78.45
2018-01-08T08:13:46.203Z,78.13
2018-01-08T08:14:26.685Z,79.74
2018-01-08T08:15:07.182Z,80.22
2018-01-08T08:15:47.810Z,79.08
2018-01-08T08:16:28.787Z,80.13
2018-01-08T08:17:09.159Z,80.13
2018-01-08T08:17:49.620Z,80.41
2018-01-08T08:18:30.101Z,81.55
2018-01-08T08:19:10.418Z,80.13
2018-01-08T08:19:50.908Z,80.6
2018-01-08T08:20:31.397Z,81.07
2018-01-08T08:21:11.798Z,81.07
2018-01-08T08:21:52.457Z,80.26
2018-01-08T08:22:33.343Z,78.83
2018-01-08T08:23:13.368Z,79.12
2018-01-08T08:23:54.026Z,79.22
2018-01-08T08:24:34.594Z,78.93
2018-01-08T08:25:15.120Z,79.03
2018-01-08T08:25:55.789Z,78.36
2018-01-08T08:26:36.178Z,78.93
2018-01-08T08:27:17.423Z,78.64
2018-01-08T08:27:57.780Z,78.55
2018-01-08T08:28:38.619Z,77.51
2018-01-08T08:29:19.138Z,77.7
2018-01-08T08:29:59.512Z,78.36
2018-01-08T08:30:40.045Z,79.08
2018-01-08T08:31:20.437Z,80.16
2018-01-08T08:32:01.147Z,79.88
2018-01-08T08:32:41.713Z,79.31
2018-01-08T08:33:22.165Z,79.36
2018-01-08T08:34:03.365Z,79.88
2018-01-08T08:34:43.993Z,78.99
2018-01-08T08:35:24.828Z,79.17
2018-01-08T08:36:05.474Z,79.84
2018-01-08T08:36:46.240Z,79.94
2018-01-08T08:37:27.267Z,80.22
2018-01-08T08:38:07.656Z,80.88
2018-01-08T08:38:48.621Z,81.3
2018-01-08T08:39:28.943Z,80.55
2018-01-08T08:40:09.347Z,79.97
2018-01-08T08:40:49.835Z,78.27
2018-01-08T08:41:30.132Z,77.79
2018-01-08T08:42:10.746Z,78.36
2018-01-08T08:42:51.135Z,79.41
2018-01-08T08:43:33.397Z,79.03
2018-01-08T08:44:13.876Z,79.97
2018-01-08T08:44:54.899Z,78.93
2018-01-08T08:45:35.658Z,78.64
2018-01-08T08:46:16.048Z,79.22
2018-01-08T08:46:56.419Z,78.83
2018-01-08T08:47:36.828Z,78.17
2018-01-08T08:48:17.273Z,78.17
2018-01-08T08:48:57.711Z,78.93
2018-01-08T08:49:38.199Z,77.89
2018-01-08T08:50:18.650Z,78.83
2018-01-08T08:50:59.058Z,78.74
2018-01-08T08:51:39.528Z,78.64
2018-01-08T08:52:20.058Z,78.83
2018-01-08T08:53:00.610Z,77.89
2018-01-08T08:53:41.071Z,77.41
2018-01-08T08:54:21.626Z,78.36
2018-01-08T08:55:02.094Z,78.36
2018-01-08T08:55:42.501Z,77.22
2018-01-08T08:56:22.935Z,78.45
2018-01-08T08:57:03.378Z,78.55
2018-01-08T08:57:43.979Z,78.36
2018-01-08T08:58:24.446Z,78.17
2018-01-08T08:59:04.885Z,78.64
2018-01-08T08:59:45.278Z,79.03
2018-01-08T09:00:25.687Z,79.03
2018-01-08T09:01:06.177Z,78.74
2018-01-08T09:01:47.303Z,78.27
2018-01-08T09:02:27.335Z,78.83
2018-01-08T09:03:08.083Z,78.36
2018-01-08T09:03:48.784Z,78.64
2018-01-08T09:04:29.288Z,78.93
2018-01-08T09:05:10.354Z,78.74
2018-01-08T09:05:50.876Z,79.03
2018-01-08T09:06:31.209Z,78.83
2018-01-08T09:07:11.756Z,78.83
2018-01-08T09:07:52.263Z,79.12
2018-01-08T09:08:32.663Z,78.11
2018-01-08T09:09:13.238Z,77.83
2018-01-08T09:09:54.007Z,78.02
2018-01-08T09:10:34.321Z,78.5
2018-01-08T09:11:14.745Z,77.73
2018-01-08T09:11:55.622Z,75.74
2018-01-08T09:12:36.643Z,75.55
2018-01-08T09:13:16.935Z,77.12
2018-01-08T09:13:57.454Z,78.27
2018-01-08T09:14:38.191Z,78.74
2018-01-08T09:15:18.707Z,79.22
2018-01-08T09:15:59.021Z,78.93
2018-01-08T09:16:39.468Z,79.84
2018-01-08T09:17:20.371Z,80.6
2018-01-08T09:18:00.809Z,80.03
2018-01-08T09:18:42.364Z,79.94
2018-01-08T09:19:22.904Z,79.46
2018-01-08T09:20:03.658Z,80.69
2018-01-08T09:20:44.025Z,80.88
2018-01-08T09:21:24.859Z,80.98
2018-01-08T09:22:06.571Z,80.64
2018-01-08T09:22:46.830Z,80.16
2018-01-08T09:23:27.235Z,80.16
2018-01-08T09:24:07.856Z,79.69
2018-01-08T09:24:48.443Z,79.03
2018-01-08T09:25:28.654Z,79.22
2018-01-08T09:27:18.046Z,79.41
2018-01-08T09:28:00.332Z,79.31
2018-01-08T09:28:40.702Z,80.16
2018-01-08T09:29:21.133Z,80.83
2018-01-08T09:30:01.467Z,79.31
2018-01-08T09:30:42.058Z,79.31
2018-01-08T09:31:22.479Z,78.17
2018-01-08T09:32:02.879Z,79.25
2018-01-08T09:32:43.312Z,78.88
2018-01-08T09:33:23.802Z,77.17
2018-01-08T09:34:04.567Z,76.78
2018-01-08T09:34:44.984Z,77.03
2018-01-08T09:35:25.503Z,78.27
2018-01-08T09:36:05.924Z,79.41
2018-01-08T09:36:46.501Z,78.45
2018-01-08T09:37:27.380Z,78.36
2018-01-08T09:38:07.852Z,78.93
2018-01-08T09:38:48.223Z,80.83
2018-01-08T09:39:29.268Z,80.64
2018-01-08T09:40:09.679Z,78.83
2018-01-08T09:40:50.180Z,79.88
2018-01-08T09:41:30.530Z,79.31
2018-01-08T09:42:11.498Z,78.93
2018-01-08T09:42:51.828Z,80.16
2018-01-08T09:43:32.277Z,80.45
2018-01-08T09:44:12.861Z,79.88
2018-01-08T09:44:53.145Z,78.59